Time;durP1;ratioP1;P1;durP2;ratioP2;P2;SDS_P1;SDS_P2;PMS_P1;PMS_P2;Temp;Humidity;BMP_temperature;BMP_pressure;BME280_temperature;BME280_humidity;BME280_pressure;Samples;Min_cycle;Max_cycle;Signal;HPM_P1;HPM_P2
2019/04/24 00:01:04;;;;;;;6.8;5.9;;;;;;;12.49;66.10059;945.1898;;;;
2019/04/24 00:03:13;;;;;;;8.6;5.8;;;;;;;12.5;65.35156;945.1495;;;;
2019/04/24 00:05:57;;;;;;;6.8;5.7;;;;;;;12.37;65.66699;945.1912;;;;
2019/04/24 00:08:09;;;;;;;7.2;5.9;;;;;;;12.37;65.69043;945.1953;;;;
2019/04/24 00:10:51;;;;;;;6.5;5.8;;;;;;;12.36;66.05859;945.145;;;;
2019/04/24 00:13:00;;;;;;;6.3;5.7;;;;;;;12.4;65.65918;945.1182;;;;
2019/04/24 00:15:43;;;;;;;9.5;6.1;;;;;;;12.34;65.80176;945.1465;;;;
2019/04/24 00:17:53;;;;;;;7.6;5.7;;;;;;;12.35;65.88379;945.2371;;;;
2019/04/24 00:20:15;;;;;;;10;5.8;;;;;;;12.33;66.1123;945.1526;;;;
2019/04/24 00:22:40;;;;;;;7.5;5.9;;;;;;;12.3;66.15332;945.1783;;;;
2019/04/24 00:25:05;;;;;;;9.4;6.1;;;;;;;12.24;66.3877;945.2197;;;;
2019/04/24 00:27:30;;;;;;;7.4;5.8;;;;;;;12.23;66.24609;945.2123;;;;
2019/04/24 00:29:55;;;;;;;7.6;5.7;;;;;;;12.17;66.51465;945.2277;;;;
2019/04/24 00:32:21;;;;;;;7.7;5.8;;;;;;;12.09;66.50391;945.1584;;;;
2019/04/24 00:34:46;;;;;;;7.3;5.8;;;;;;;12.26;66.25;945.257;;;;
2019/04/24 00:37:11;;;;;;;8;5.9;;;;;;;12.17;66.33008;945.2839;;;;
2019/04/24 00:39:36;;;;;;;6.1;5.6;;;;;;;12.2;66.25391;945.2241;;;;
2019/04/24 00:42:01;;;;;;;8.6;6.1;;;;;;;12.03;67.20898;945.262;;;;
2019/04/24 00:44:26;;;;;;;7.4;5.9;;;;;;;11.98;67.08496;945.2592;;;;
2019/04/24 00:46:51;;;;;;;8.1;6.7;;;;;;;11.95;67.26465;945.2888;;;;
2019/04/24 00:49:16;;;;;;;9;6.1;;;;;;;11.95;67.3125;945.2798;;;;
2019/04/24 00:51:41;;;;;;;7.1;5.4;;;;;;;11.88;67.47461;945.31;;;;
2019/04/24 00:54:07;;;;;;;8.9;6.4;;;;;;;11.83;67.86133;945.332;;;;
2019/04/24 00:56:32;;;;;;;8.3;6.1;;;;;;;11.8;67.80957;945.2792;;;;
2019/04/24 00:58:57;;;;;;;8.1;5.9;;;;;;;11.94;67.04492;945.342;;;;
2019/04/24 01:04:10;;;;;;;7.5;5.9;;;;;;;11.91;67.04004;945.3285;;;;
2019/04/24 01:06:18;;;;;;;8;6.1;;;;;;;11.92;66.95996;945.4531;;;;
2019/04/24 01:08:37;;;;;;;7.7;6.1;;;;;;;11.85;66.9502;945.4522;;;;
2019/04/24 01:11:03;;;;;;;8.3;6;;;;;;;11.9;66.6123;945.4417;;;;
2019/04/24 01:13:28;;;;;;;6.6;5.9;;;;;;;11.95;66.53711;945.4064;;;;
2019/04/24 01:15:55;;;;;;;7.1;6.4;;;;;;;11.87;67.03418;945.4543;;;;
2019/04/24 01:18:20;;;;;;;7.6;6.3;;;;;;;11.77;66.70703;945.4746;;;;
2019/04/24 01:20:45;;;;;;;7.3;6.5;;;;;;;11.81;67.06055;945.4872;;;;
2019/04/24 01:23:10;;;;;;;7.5;6.7;;;;;;;11.77;67.14746;945.3692;;;;
2019/04/24 01:25:35;;;;;;;9.2;7.1;;;;;;;11.81;67.3125;945.457;;;;
2019/04/24 01:28:00;;;;;;;8.1;7.3;;;;;;;11.8;67.39258;945.3666;;;;
2019/04/24 01:30:34;;;;;;;9;7.4;;;;;;;11.66;67.66992;945.3653;;;;
2019/04/24 01:32:51;;;;;;;8.3;6.8;;;;;;;11.65;67.77344;945.3482;;;;
2019/04/24 01:35:27;;;;;;;7.9;7.1;;;;;;;11.63;68.18457;945.5123;;;;
2019/04/24 01:37:54;;;;;;;7.7;7;;;;;;;11.42;69.24805;945.5441;;;;
2019/04/24 01:40:09;;;;;;;10.2;7.6;;;;;;;11.51;68.79004;945.6169;;;;
2019/04/24 01:42:31;;;;;;;8.9;7.5;;;;;;;11.42;69.00586;945.6223;;;;
2019/04/24 01:44:56;;;;;;;10.3;7.7;;;;;;;11.42;69.20215;945.532;;;;
2019/04/24 01:47:21;;;;;;;8.5;7.6;;;;;;;11.46;69.2207;945.6182;;;;
2019/04/24 01:49:46;;;;;;;9.2;7.3;;;;;;;11.47;68.73633;945.6484;;;;
2019/04/24 01:52:11;;;;;;;9;6.9;;;;;;;11.48;69.40625;945.6384;;;;
2019/04/24 01:54:36;;;;;;;7.6;6.8;;;;;;;11.45;68.75684;945.6418;;;;
2019/04/24 01:57:01;;;;;;;8.8;7.3;;;;;;;11.33;69.12891;945.5945;;;;
2019/04/24 01:59:26;;;;;;;10;7.4;;;;;;;11.33;69.37109;945.6077;;;;
2019/04/24 02:01:52;;;;;;;9.6;7;;;;;;;11.36;69.03027;945.6825;;;;
2019/04/24 02:04:17;;;;;;;7.7;6.6;;;;;;;11.29;68.95117;945.6512;;;;
2019/04/24 02:06:50;;;;;;;7;6.3;;;;;;;11.3;68.69922;945.7186;;;;
2019/04/24 02:09:22;;;;;;;7.3;6.6;;;;;;;11.3;68.75684;945.6664;;;;
2019/04/24 02:11:34;;;;;;;7.5;6.6;;;;;;;11.2;69.07422;945.7349;;;;
2019/04/24 02:13:57;;;;;;;7.6;6.8;;;;;;;11.12;69.44141;945.6961;;;;
2019/04/24 02:16:22;;;;;;;9.1;6.5;;;;;;;11.1;69.40527;945.7372;;;;
2019/04/24 02:18:48;;;;;;;10.4;6.9;;;;;;;11.02;69.79395;945.8077;;;;
2019/04/24 02:21:13;;;;;;;8.7;6.7;;;;;;;11.19;69.47559;945.793;;;;
2019/04/24 02:23:38;;;;;;;7.3;6.6;;;;;;;11.16;69.22949;945.8436;;;;
2019/04/24 02:26:03;;;;;;;8.1;7;;;;;;;11.02;69.77148;945.8639;;;;
2019/04/24 02:28:28;;;;;;;7.8;7;;;;;;;11.06;69.85938;945.7803;;;;
2019/04/24 02:30:53;;;;;;;9.1;6.6;;;;;;;11.18;69.46289;945.7936;;;;
2019/04/24 02:33:23;;;;;;;8;6.9;;;;;;;11.08;69.76953;945.7486;;;;
2019/04/24 02:35:54;;;;;;;8.3;6.2;;;;;;;11.14;69.49219;945.7629;;;;
2019/04/24 02:40:40;;;;;;;7;6;;;;;;;11.14;69.00781;945.798;;;;
2019/04/24 02:43:01;;;;;;;8.5;6.7;;;;;;;11.07;69.72266;945.8188;;;;
2019/04/24 02:45:26;;;;;;;7.6;6.2;;;;;;;11.06;69.21387;945.8455;;;;
2019/04/24 02:47:54;;;;;;;9.4;6.6;;;;;;;11.04;69.39355;945.8965;;;;
2019/04/24 02:50:17;;;;;;;7.6;6.4;;;;;;;10.94;68.88477;945.8853;;;;
2019/04/24 02:52:42;;;;;;;7.1;6.4;;;;;;;10.91;69.54688;945.98;;;;
2019/04/24 02:55:07;;;;;;;8;6.4;;;;;;;10.82;69.3252;945.925;;;;
2019/04/24 02:57:35;;;;;;;8;5.9;;;;;;;10.77;69.71973;945.961;;;;
2019/04/24 03:00:00;;;;;;;8.4;6.2;;;;;;;10.87;69.10352;945.9412;;;;
2019/04/24 03:02:33;;;;;;;7;6;;;;;;;10.88;68.98926;945.9183;;;;
2019/04/24 03:04:51;;;;;;;7.7;5.7;;;;;;;10.89;68.71484;945.9177;;;;
2019/04/24 03:07:16;;;;;;;6.9;5.9;;;;;;;10.81;69.05859;945.948;;;;
2019/04/24 03:09:41;;;;;;;7.9;6.4;;;;;;;10.74;69.19727;946.0078;;;;
2019/04/24 03:12:20;;;;;;;7.4;6.6;;;;;;;10.66;68.82813;946.0031;;;;
2019/04/24 03:14:41;;;;;;;6.9;6.2;;;;;;;10.69;68.91309;946.0609;;;;
2019/04/24 03:16:57;;;;;;;7.4;6.1;;;;;;;10.66;68.74609;945.9388;;;;
2019/04/24 03:19:22;;;;;;;6.9;5.9;;;;;;;10.65;68.57227;945.9609;;;;
2019/04/24 03:21:47;;;;;;;7;6.3;;;;;;;10.59;69.45996;946.0197;;;;
2019/04/24 03:24:13;;;;;;;7;6;;;;;;;10.61;69.14258;946.0259;;;;
2019/04/24 03:26:53;;;;;;;7.5;6;;;;;;;10.62;68.80957;945.9944;;;;
2019/04/24 03:29:04;;;;;;;7.4;6;;;;;;;10.55;69.28223;945.9977;;;;
2019/04/24 03:31:29;;;;;;;7.1;6.4;;;;;;;10.46;69.53027;945.9906;;;;
2019/04/24 03:33:54;;;;;;;7.6;6.8;;;;;;;10.51;69.1709;946.037;;;;
2019/04/24 03:36:24;;;;;;;8.2;6.6;;;;;;;10.39;69.48633;946.0984;;;;
2019/04/24 03:38:45;;;;;;;7.2;6.5;;;;;;;10.35;69.62988;946.1588;;;;
2019/04/24 03:41:14;;;;;;;8.5;5.8;;;;;;;10.4;69.55762;946.2659;;;;
2019/04/24 03:43:39;;;;;;;7.6;6.5;;;;;;;10.36;69.8252;946.3102;;;;
2019/04/24 03:46:06;;;;;;;8;6.2;;;;;;;10.31;69.89844;946.289;;;;
2019/04/24 03:48:38;;;;;;;7.7;6.9;;;;;;;10.23;70.62305;946.3753;;;;
2019/04/24 03:50:54;;;;;;;7.9;6.9;;;;;;;10.29;70.25195;946.4391;;;;
2019/04/24 03:53:19;;;;;;;9.3;6.7;;;;;;;10.27;70.14648;946.3755;;;;
2019/04/24 03:56:26;;;;;;;8.1;6.8;;;;;;;10.16;70.7959;946.4175;;;;
2019/04/24 03:58:18;;;;;;;6.6;6;;;;;;;10.3;69.97754;946.4642;;;;
2019/04/24 04:02:33;;;;;;;7;6.3;;;;;;;10.29;70.39063;946.4347;;;;
2019/04/24 04:04:53;;;;;;;7.7;6.8;;;;;;;10.19;70.21387;946.4363;;;;
2019/04/24 04:07:21;;;;;;;7.2;6.5;;;;;;;10.15;71.08105;946.4835;;;;
2019/04/24 04:09:46;;;;;;;7.5;6.8;;;;;;;10.25;70.34863;946.3995;;;;
2019/04/24 04:12:14;;;;;;;7.1;6.4;;;;;;;10.2;70.11035;946.4964;;;;
2019/04/24 04:14:39;;;;;;;7.3;6.6;;;;;;;10.14;70.19434;946.4933;;;;
2019/04/24 04:17:40;;;;;;;8.5;6.9;;;;;;;10;70.43457;946.574;;;;
2019/04/24 04:19:31;;;;;;;7.3;6.6;;;;;;;10;70.76953;946.5779;;;;
2019/04/24 04:21:54;;;;;;;7.2;6.5;;;;;;;10.07;70.92871;946.6097;;;;
2019/04/24 04:24:33;;;;;;;8.3;6.9;;;;;;;10.16;70.37988;946.6438;;;;
2019/04/24 04:27:03;;;;;;;8.2;6.6;;;;;;;10.11;70.45313;946.7531;;;;
2019/04/24 04:29:42;;;;;;;8;6.7;;;;;;;10.18;70.66016;946.7277;;;;
2019/04/24 04:32:07;;;;;;;9.3;7.4;;;;;;;10.01;70.88574;946.7634;;;;
2019/04/24 04:34:25;;;;;;;7.7;6.9;;;;;;;10.05;70.92773;946.7676;;;;
2019/04/24 04:37:01;;;;;;;7.3;6.6;;;;;;;10.01;70.72461;946.7634;;;;
2019/04/24 04:39:51;;;;;;;8.4;7.6;;;;;;;10.13;70.44434;946.7073;;;;
2019/04/24 04:41:53;;;;;;;11.3;9.3;;;;;;;10.12;70.45508;946.7612;;;;
2019/04/24 04:44:16;;;;;;;10.1;8.4;;;;;;;10.19;70.37402;946.8619;;;;
2019/04/24 04:46:51;;;;;;;9.2;8.3;;;;;;;10.13;70.69727;946.8505;;;;
2019/04/24 04:49:19;;;;;;;8;7.1;;;;;;;10.18;70.55664;946.8409;;;;
2019/04/24 04:51:31;;;;;;;8.5;7.1;;;;;;;10.15;70.17188;946.8922;;;;
2019/04/24 04:53:58;;;;;;;9.3;7.7;;;;;;;10.06;70.62988;947.0052;;;;
2019/04/24 04:56:23;;;;;;;9.3;7.7;;;;;;;10.09;70.80664;946.981;;;;
2019/04/24 04:58:51;;;;;;;10.3;8.1;;;;;;;10.14;69.93066;947.0233;;;;
2019/04/24 05:01:40;;;;;;;9.8;7.9;;;;;;;10.18;70.53223;947.1234;;;;
2019/04/24 05:03:50;;;;;;;9.7;7.4;;;;;;;10.22;70.52832;947.063;;;;
2019/04/24 05:06:04;;;;;;;8.9;7.5;;;;;;;10.16;70.53125;947.1118;;;;
2019/04/24 05:08:44;;;;;;;8.6;7.5;;;;;;;10.22;70.34473;947.1282;;;;
2019/04/24 05:11:10;;;;;;;9.1;7.4;;;;;;;10.25;69.47559;947.098;;;;
2019/04/24 05:13:35;;;;;;;7.1;6.4;;;;;;;10.33;69.37207;947.2075;;;;
2019/04/24 05:16:00;;;;;;;9.3;7.4;;;;;;;10.28;69.45605;947.1871;;;;
2019/04/24 05:18:26;;;;;;;11.2;7.7;;;;;;;10.3;70.19629;947.1887;;;;
2019/04/24 05:20:51;;;;;;;10.5;8.3;;;;;;;10.38;70.24414;947.1237;;;;
2019/04/24 05:23:19;;;;;;;11.6;7.8;;;;;;;10.39;70.39648;947.205;;;;
2019/04/24 05:26:02;;;;;;;10.4;7.9;;;;;;;10.45;69.9668;947.1692;;;;
2019/04/24 05:28:08;;;;;;;10.4;7.7;;;;;;;10.58;69.0459;947.2324;;;;
2019/04/24 05:30:38;;;;;;;8.1;7.3;;;;;;;10.58;69.4248;947.2594;;;;
2019/04/24 05:32:57;;;;;;;10.2;7.5;;;;;;;10.59;69.21973;947.236;;;;
2019/04/24 05:35:35;;;;;;;10.2;7.6;;;;;;;10.7;69.16797;947.3284;;;;
2019/04/24 05:41:22;;;;;;;8.4;7.5;;;;;;;10.73;68.90723;947.4083;;;;
2019/04/24 05:43:47;;;;;;;8.9;7.7;;;;;;;10.75;68.28906;947.2714;;;;
2019/04/24 05:46:13;;;;;;;10;7.6;;;;;;;10.84;68.11816;947.3527;;;;
2019/04/24 05:48:41;;;;;;;7.7;6.9;;;;;;;10.99;68.56934;947.4453;;;;
2019/04/24 05:51:10;;;;;;;9.3;7.7;;;;;;;10.92;68.25781;947.4008;;;;
2019/04/24 05:53:35;;;;;;;8.7;7.8;;;;;;;11.03;68.67969;947.4924;;;;
2019/04/24 05:55:54;;;;;;;10.8;8.3;;;;;;;10.85;67.92578;947.364;;;;
2019/04/24 05:58:20;;;;;;;8.9;7.7;;;;;;;10.94;67.46777;947.4673;;;;
2019/04/24 06:00:53;;;;;;;13.6;8;;;;;;;11.05;67.56348;947.4867;;;;
2019/04/24 06:03:34;;;;;;;14.6;8.3;;;;;;;11.07;66.32324;947.4844;;;;
2019/04/24 06:05:41;;;;;;;9.5;8.1;;;;;;;11.07;67.07324;947.4924;;;;
2019/04/24 06:08:06;;;;;;;11.2;7.8;;;;;;;11.17;66.69434;947.5737;;;;
2019/04/24 06:10:34;;;;;;;8.9;7.7;;;;;;;11.29;66.99121;947.5692;;;;
2019/04/24 06:16:27;;;;;;;9.4;8.4;;;;;;;11.39;66.30371;947.6577;;;;
2019/04/24 06:17:54;;;;;;;9.7;8;;;;;;;11.46;66.79883;947.6372;;;;
2019/04/24 06:20:15;;;;;;;9.3;8.1;;;;;;;11.59;65.83887;947.6789;;;;
2019/04/24 06:22:58;;;;;;;11.5;8.6;;;;;;;11.6;65.50391;947.7342;;;;
2019/04/24 06:25:02;;;;;;;11.1;9;;;;;;;11.68;65.8623;947.7169;;;;
2019/04/24 06:27:27;;;;;;;9.7;8.7;;;;;;;11.78;66.7793;947.7056;;;;
2019/04/24 06:29:52;;;;;;;9.6;8.7;;;;;;;11.86;66.87109;947.6935;;;;
2019/04/24 06:32:17;;;;;;;11.2;8.2;;;;;;;11.86;65.10645;947.6755;;;;
2019/04/24 06:34:46;;;;;;;12.2;8.7;;;;;;;11.97;64.30078;947.6937;;;;
2019/04/24 06:37:18;;;;;;;11.7;8.6;;;;;;;12.15;64.90625;947.7302;;;;
2019/04/24 06:39:40;;;;;;;9;8.1;;;;;;;12.32;64.71094;947.7502;;;;
2019/04/24 06:42:07;;;;;;;11.2;8.6;;;;;;;12.35;64.11523;947.7296;;;;
2019/04/24 06:44:26;;;;;;;9.5;8.1;;;;;;;12.42;64.26367;947.7611;;;;
2019/04/24 06:46:52;;;;;;;10.8;8.5;;;;;;;12.58;63.69922;947.7114;;;;
2019/04/24 06:49:17;;;;;;;9.6;8.5;;;;;;;12.67;61.86133;947.6364;;;;
2019/04/24 06:51:44;;;;;;;10.3;8.3;;;;;;;12.77;62.24609;947.6372;;;;
2019/04/24 06:54:07;;;;;;;10;8.2;;;;;;;12.88;62.58496;947.6116;;;;
2019/04/24 06:56:37;;;;;;;9.1;7.9;;;;;;;12.97;61.9043;947.6753;;;;
2019/04/24 06:59:22;;;;;;;10.3;7.7;;;;;;;13.05;60.98926;947.7319;;;;
2019/04/24 07:01:49;;;;;;;10.9;7.6;;;;;;;13.2;60.41992;947.7573;;;;
2019/04/24 07:06:41;;;;;;;9.1;8.1;;;;;;;13.32;61.1084;947.7351;;;;
2019/04/24 07:16:56;;;;;;;13.8;9.6;;;;;;;13.66;59.19727;947.8865;;;;
2019/04/24 07:19:22;;;;;;;11;7.8;;;;;;;13.73;59.05566;947.9662;;;;
2019/04/24 07:21:56;;;;;;;8.2;6.7;;;;;;;13.84;57.58594;947.9663;;;;
2019/04/24 07:24:14;;;;;;;8.5;6.5;;;;;;;13.91;57.29395;947.9664;;;;
2019/04/24 07:26:41;;;;;;;8.8;6.2;;;;;;;14;56.23828;947.9816;;;;
2019/04/24 07:29:09;;;;;;;7.6;5.6;;;;;;;14.1;56.72754;948.0008;;;;
2019/04/24 07:34:26;;;;;;;9;5.9;;;;;;;14.22;54.01563;948.0252;;;;
2019/04/24 07:36:49;;;;;;;9.3;5.8;;;;;;;14.32;54.90918;948.009;;;;
2019/04/24 07:39:13;;;;;;;11.1;5.6;;;;;;;14.39;55.88281;948.0662;;;;
2019/04/24 07:41:30;;;;;;;6;5.4;;;;;;;14.46;56.07715;948.0095;;;;
2019/04/24 07:43:56;;;;;;;7.9;5.9;;;;;;;14.52;56.53809;948.0245;;;;
2019/04/24 07:46:24;;;;;;;9.2;6;;;;;;;14.61;54.15625;948.0617;;;;
2019/04/24 07:49:01;;;;;;;10.4;6.2;;;;;;;14.68;55.01367;948.027;;;;
2019/04/24 07:51:26;;;;;;;7.2;5.6;;;;;;;14.76;54.90723;948.0823;;;;
2019/04/24 07:54:00;;;;;;;7.5;5.2;;;;;;;14.87;53.72363;948.1782;;;;
2019/04/24 07:58:55;;;;;;;8;5.8;;;;;;;15.12;53.54492;948.2175;;;;
2019/04/24 08:01:21;;;;;;;9.5;5.9;;;;;;;15.16;53.16602;948.1772;;;;
2019/04/24 08:03:44;;;;;;;8.6;5.6;;;;;;;15.23;51.62793;948.1517;;;;
2019/04/24 08:06:09;;;;;;;8.2;5.2;;;;;;;15.3;52.05469;948.1511;;;;
2019/04/24 08:11:02;;;;;;;8.5;5.5;;;;;;;15.54;51.47852;948.178;;;;
2019/04/24 08:13:24;;;;;;;9.5;5.3;;;;;;;15.67;50.41016;948.2134;;;;
2019/04/24 08:15:57;;;;;;;9.2;5.3;;;;;;;15.74;50.50098;948.24;;;;
2019/04/24 08:18:38;;;;;;;7.6;4.9;;;;;;;15.86;51.50391;948.182;;;;
2019/04/24 08:20:47;;;;;;;7.2;5.2;;;;;;;16;50.33301;948.2158;;;;
2019/04/24 08:23:12;;;;;;;10.8;5.3;;;;;;;16.16;50.73535;948.2531;;;;
2019/04/24 08:25:37;;;;;;;6.7;4.8;;;;;;;16.28;49.10547;948.2676;;;;
2019/04/24 08:28:02;;;;;;;8.6;5.7;;;;;;;16.42;48.08301;948.2762;;;;
2019/04/24 08:30:27;;;;;;;5.6;4.7;;;;;;;16.45;47.35059;948.2986;;;;
2019/04/24 08:32:52;;;;;;;6.4;4.2;;;;;;;16.6;47.6123;948.2703;;;;
2019/04/24 08:35:17;;;;;;;6.7;4.1;;;;;;;16.84;47.98828;948.323;;;;
2019/04/24 08:38:01;;;;;;;6.4;3.9;;;;;;;16.86;47.71094;948.3552;;;;
2019/04/24 08:43:37;;;;;;;4.8;3.3;;;;;;;16.91;45.92871;948.3533;;;;
2019/04/24 08:43:46;;;;;;;5.4;3.6;;;;;;;16.94;46.52832;948.2966;;;;
2019/04/24 08:46:18;;;;;;;7;3.2;;;;;;;17.03;45.59082;948.3159;;;;
2019/04/24 08:48:36;;;;;;;6.7;3.2;;;;;;;17.13;45.68262;948.3198;;;;
2019/04/24 08:51:12;;;;;;;7.1;2.8;;;;;;;17.19;46.37891;948.3117;;;;
2019/04/24 08:53:26;;;;;;;4.8;2.9;;;;;;;17.22;45.24805;948.3564;;;;
2019/04/24 08:55:55;;;;;;;7;3.2;;;;;;;17.34;44.39551;948.3097;;;;
2019/04/24 08:58:17;;;;;;;5.1;3.2;;;;;;;17.42;44.18164;948.3209;;;;
2019/04/24 09:00:50;;;;;;;5.9;3;;;;;;;17.52;44.48438;948.277;;;;
2019/04/24 09:03:14;;;;;;;4.9;3.1;;;;;;;17.7;43.25098;948.3578;;;;
2019/04/24 09:05:34;;;;;;;5.8;3.3;;;;;;;17.82;44.12891;948.2939;;;;
2019/04/24 09:08:04;;;;;;;3.9;3.1;;;;;;;17.88;43.52539;948.2501;;;;
2019/04/24 09:10:35;;;;;;;6;3.4;;;;;;;18.02;43.03613;948.2842;;;;
2019/04/24 09:15:20;;;;;;;23.1;4;;;;;;;18.22;42.68066;948.3364;;;;
2019/04/24 09:17:40;;;;;;;7.3;3.1;;;;;;;18.36;41.95605;948.3173;;;;
2019/04/24 09:20:05;;;;;;;10.1;2.5;;;;;;;18.46;42.67969;948.3527;;;;
2019/04/24 09:22:30;;;;;;;7.2;2.5;;;;;;;18.69;42.72656;948.3644;;;;
2019/04/24 09:25:22;;;;;;;6.6;2.5;;;;;;;18.78;41.87891;948.3042;;;;
2019/04/24 09:27:27;;;;;;;5.2;2.5;;;;;;;18.87;42.22852;948.2517;;;;
2019/04/24 09:29:46;;;;;;;4.1;2.1;;;;;;;18.96;42.65918;948.2693;;;;
2019/04/24 09:32:12;;;;;;;6.7;2;;;;;;;19.16;44.40332;948.2507;;;;
2019/04/24 09:34:44;;;;;;;4.2;1.8;;;;;;;19.19;42.31738;948.1234;;;;
2019/04/24 09:37:10;;;;;;;3.4;1.7;;;;;;;19.29;42.16211;948.1357;;;;
2019/04/24 09:39:36;;;;;;;3.8;1.6;;;;;;;19.29;43.50098;948.1489;;;;
2019/04/24 09:41:55;;;;;;;6.5;2;;;;;;;19.4;42.60645;948.1379;;;;
2019/04/24 09:44:19;;;;;;;5;2.2;;;;;;;19.51;42.52441;948.0952;;;;
2019/04/24 09:46:44;;;;;;;5.1;2.1;;;;;;;19.6;40.80566;948.0648;;;;
2019/04/24 09:49:09;;;;;;;6;2.3;;;;;;;19.7;40.66211;948.0732;;;;
2019/04/24 09:51:35;;;;;;;4;2.1;;;;;;;19.79;40.43457;948.0559;;;;
2019/04/24 09:54:11;;;;;;;3.7;1.8;;;;;;;19.89;41.72559;948.0323;;;;
2019/04/24 09:56:27;;;;;;;8.4;2.2;;;;;;;20.08;41.34473;948.0405;;;;
2019/04/24 09:58:55;;;;;;;5;1.9;;;;;;;20.32;39.90723;947.9928;;;;
2019/04/24 10:01:46;;;;;;;4.6;1.8;;;;;;;20.47;41.28613;948.0101;;;;
2019/04/24 10:03:50;;;;;;;4.9;2.1;;;;;;;20.61;39.68555;947.933;;;;
2019/04/24 10:06:10;;;;;;;3.8;1.6;;;;;;;20.64;42.16309;947.9461;;;;
2019/04/24 10:08:35;;;;;;;5.6;2;;;;;;;20.68;39.95215;947.9086;;;;
2019/04/24 10:11:01;;;;;;;3.7;1.7;;;;;;;20.99;40.1084;947.8725;;;;
2019/04/24 10:13:36;;;;;;;2.7;1.5;;;;;;;21.09;38.52637;947.8261;;;;
2019/04/24 10:15:51;;;;;;;5.8;1.7;;;;;;;21.14;39.03809;947.8017;;;;
2019/04/24 10:18:27;;;;;;;4.5;1.8;;;;;;;21.23;38.92773;947.7482;;;;
2019/04/24 10:20:46;;;;;;;3.7;1.5;;;;;;;21.29;39.45215;947.743;;;;
2019/04/24 10:23:15;;;;;;;3.5;1.9;;;;;;;21.4;38.69531;947.6955;;;;
2019/04/24 10:25:32;;;;;;;4.2;1.6;;;;;;;21.56;39.15723;947.6141;;;;
2019/04/24 10:31:45;;;;;;;5.2;1.3;;;;;;;22.17;38.59766;947.5167;;;;
2019/04/24 10:34:02;;;;;;;4.3;1.3;;;;;;;22.42;37.82617;947.5134;;;;
2019/04/24 10:36:28;;;;;;;2.5;1;;;;;;;22.54;34.04004;947.4464;;;;
2019/04/24 10:38:53;;;;;;;4.7;1.1;;;;;;;22.71;33.76855;947.5265;;;;
2019/04/24 10:41:25;;;;;;;2.9;0.9;;;;;;;22.98;34.01465;947.4794;;;;
2019/04/24 10:43:41;;;;;;;5.4;1.2;;;;;;;23.3;33.375;947.5053;;;;
2019/04/24 10:46:17;;;;;;;3;0.9;;;;;;;23.66;33;947.5533;;;;
2019/04/24 10:48:46;;;;;;;3.6;0.9;;;;;;;24.09;33.77832;947.5963;;;;
2019/04/24 10:50:53;;;;;;;4.7;1;;;;;;;24.44;31.03711;947.6295;;;;
2019/04/24 10:53:19;;;;;;;4.3;0.7;;;;;;;24.55;29.78516;947.5174;;;;
2019/04/24 10:55:42;;;;;;;4.7;0.9;;;;;;;25.8;25.00781;947.5939;;;;
2019/04/24 10:58:08;;;;;;;3.4;0.6;;;;;;;27.56;19.3291;947.6247;;;;
2019/04/24 11:00:42;;;;;;;4.5;1.1;;;;;;;28.84;22.37109;947.652;;;;
2019/04/24 11:03:14;;;;;;;4.6;0.7;;;;;;;29.53;20.0752;947.6724;;;;
2019/04/24 11:06:44;;;;;;;2.2;0.6;;;;;;;29.6;17.59082;947.7227;;;;
2019/04/24 11:07:55;;;;;;;3.7;0.7;;;;;;;29.72;17.34277;947.7058;;;;
2019/04/24 11:10:39;;;;;;;3.3;0.8;;;;;;;29.71;18.61621;947.7611;;;;
2019/04/24 11:12:49;;;;;;;4.7;0.6;;;;;;;29.56;18.1416;947.7568;;;;
2019/04/24 11:17:36;;;;;;;3.5;0.5;;;;;;;29.4;19.62402;947.7325;;;;
2019/04/24 11:22:30;;;;;;;3;0.7;;;;;;;29.05;19.22461;947.6454;;;;
2019/04/24 11:24:53;;;;;;;4.9;0.8;;;;;;;29.98;18.74707;947.761;;;;
2019/04/24 11:27:13;;;;;;;3.9;0.7;;;;;;;30.66;18.83594;947.8039;;;;
2019/04/24 11:29:42;;;;;;;2.9;0.7;;;;;;;31.01;17.88672;947.7183;;;;
2019/04/24 11:41:43;;;;;;;8;1.1;;;;;;;31.43;16.51563;947.6431;;;;
2019/04/24 11:44:09;;;;;;;7.9;1.4;;;;;;;31.8;17.1084;947.6609;;;;
2019/04/24 11:46:53;;;;;;;4.3;0.8;;;;;;;32.76;16.60059;947.6758;;;;
2019/04/24 11:49:23;;;;;;;2.3;0.7;;;;;;;32.79;15.75488;947.7238;;;;
2019/04/24 11:52:11;;;;;;;8.9;3;;;;;;;33.58;15.15137;947.7244;;;;
2019/04/24 11:53:52;;;;;;;3.5;1.1;;;;;;;33.57;13.87793;947.6139;;;;
2019/04/24 11:56:25;;;;;;;5.7;1.7;;;;;;;33.72;15.45898;947.598;;;;
2019/04/24 11:58:46;;;;;;;3.1;0.7;;;;;;;33.85;14.63867;947.6431;;;;
2019/04/24 12:01:19;;;;;;;2.5;0.8;;;;;;;34.07;15.45898;947.5844;;;;
2019/04/24 12:05:59;;;;;;;4.5;1.1;;;;;;;33.16;15.99707;947.502;;;;
2019/04/24 12:08:25;;;;;;;7.6;0.8;;;;;;;31.56;15.36133;947.3713;;;;
2019/04/24 12:10:53;;;;;;;5.8;0.8;;;;;;;31.15;15.60156;947.3727;;;;
2019/04/24 12:13:25;;;;;;;3.8;0.7;;;;;;;30.92;17.70215;947.3358;;;;
2019/04/24 12:15:52;;;;;;;3;0.8;;;;;;;30.81;19.40918;947.339;;;;
2019/04/24 12:18:08;;;;;;;4.4;0.5;;;;;;;30.28;17.44824;947.3152;;;;
2019/04/24 12:20:55;;;;;;;3;0.7;;;;;;;31.19;17.88086;947.2589;;;;
2019/04/24 12:23:04;;;;;;;6.6;0.9;;;;;;;31.62;17.05371;947.2249;;;;
2019/04/24 12:25:29;;;;;;;3.2;1.1;;;;;;;31.7;17.11719;947.2906;;;;
2019/04/24 12:27:54;;;;;;;3.9;0.6;;;;;;;31.38;15.59668;947.3474;;;;
2019/04/24 12:30:20;;;;;;;2.9;0.6;;;;;;;31.23;14.83203;947.2906;;;;
2019/04/24 12:32:49;;;;;;;2.9;0.5;;;;;;;30.58;15.78613;947.2667;;;;
2019/04/24 12:35:14;;;;;;;2.3;0.4;;;;;;;30.38;16.03223;947.2505;;;;
2019/04/24 12:37:36;;;;;;;4.1;0.8;;;;;;;30.19;17.7334;947.2017;;;;
2019/04/24 12:40:23;;;;;;;3.2;0.9;;;;;;;29.31;17.74805;947.2336;;;;
2019/04/24 12:42:26;;;;;;;4.5;0.8;;;;;;;29.68;19.07129;947.2426;;;;
2019/04/24 12:44:51;;;;;;;4.8;0.6;;;;;;;30.02;18.72559;947.2372;;;;
2019/04/24 12:47:16;;;;;;;5;0.9;;;;;;;30.12;19.12695;947.1956;;;;
2019/04/24 12:49:42;;;;;;;8.7;1;;;;;;;29.8;19.42578;947.139;;;;
2019/04/24 12:52:07;;;;;;;4.5;0.8;;;;;;;29.51;19.29297;947.2775;;;;
2019/04/24 12:54:46;;;;;;;7.1;0.9;;;;;;;29.66;19.34766;947.2374;;;;
2019/04/24 12:59:46;;;;;;;6.9;0.8;;;;;;;29.62;18.31152;947.1022;;;;
2019/04/24 13:04:16;;;;;;;3;0.8;;;;;;;28.42;19.46191;947.0079;;;;
2019/04/24 13:06:38;;;;;;;1.9;0.5;;;;;;;28.32;21.57813;946.9587;;;;
2019/04/24 13:09:05;;;;;;;2.6;0.6;;;;;;;28.42;20.58789;947.0658;;;;
2019/04/24 13:11:50;;;;;;;7.2;0.9;;;;;;;28.17;18.70801;947.0439;;;;
2019/04/24 13:14:00;;;;;;;6.7;0.8;;;;;;;27.74;18.78613;946.9732;;;;
2019/04/24 13:16:30;;;;;;;4.2;0.8;;;;;;;27.5;19.02734;947.0556;;;;
2019/04/24 13:18:48;;;;;;;2.8;1.7;;;;;;;27.45;20.28125;947.0382;;;;
2019/04/24 13:21:13;;;;;;;3.4;0.9;;;;;;;27.45;20.90234;946.9713;;;;
2019/04/24 13:23:38;;;;;;;3.3;0.6;;;;;;;27.74;18.76172;946.9503;;;;
2019/04/24 13:26:12;;;;;;;7.9;1.1;;;;;;;28.09;19.65137;947.0714;;;;
2019/04/24 13:28:37;;;;;;;6.9;0.9;;;;;;;28.12;19.66406;947.0524;;;;
2019/04/24 13:31:13;;;;;;;3.9;0.7;;;;;;;27.65;19.46484;946.9386;;;;
2019/04/24 13:33:21;;;;;;;5.8;0.8;;;;;;;27.19;18.75195;946.9799;;;;
2019/04/24 13:35:46;;;;;;;2.1;0.6;;;;;;;27.12;18.64063;946.9889;;;;
2019/04/24 13:38:11;;;;;;;3.2;0.8;;;;;;;27.04;20.81152;946.9487;;;;
2019/04/24 13:40:36;;;;;;;5.2;0.8;;;;;;;27.25;18.61035;946.9969;;;;
2019/04/24 13:43:20;;;;;;;4;0.7;;;;;;;27.28;20.03418;946.9688;;;;
2019/04/24 13:45:45;;;;;;;7.9;0.8;;;;;;;27.29;19.09082;946.9756;;;;
2019/04/24 13:48:11;;;;;;;2.7;0.7;;;;;;;27.46;20.37695;946.8667;;;;
2019/04/24 13:50:36;;;;;;;3.6;0.7;;;;;;;27.35;18.85352;946.8725;;;;
2019/04/24 13:53:01;;;;;;;5;0.6;;;;;;;27.31;18.91211;946.8297;;;;
2019/04/24 13:55:26;;;;;;;4;0.7;;;;;;;27.28;18.52832;946.8525;;;;
2019/04/24 13:57:51;;;;;;;12.2;1.3;;;;;;;27.19;20.24512;946.8554;;;;
2019/04/24 14:00:25;;;;;;;3.5;0.7;;;;;;;27.28;19.07813;946.8938;;;;
2019/04/24 14:02:41;;;;;;;4;0.7;;;;;;;27.2;20.71191;946.8887;;;;
2019/04/24 14:05:06;;;;;;;5.5;0.8;;;;;;;27.31;20.87305;946.9688;;;;
2019/04/24 14:07:31;;;;;;;2.8;0.7;;;;;;;27.35;18.74609;946.9072;;;;
2019/04/24 14:09:56;;;;;;;4.3;0.7;;;;;;;27.06;20.37109;946.9849;;;;
2019/04/24 14:12:23;;;;;;;5.3;0.9;;;;;;;26.8;19.40332;946.8619;;;;
2019/04/24 14:14:48;;;;;;;4.6;0.7;;;;;;;26.51;21.94531;946.9019;;;;
2019/04/24 14:17:14;;;;;;;7.1;0.8;;;;;;;26.49;20.27344;946.8791;;;;
2019/04/24 14:19:52;;;;;;;9.8;6.2;;;;;;;26.32;20.11035;946.8998;;;;
2019/04/24 14:22:18;;;;;;;1.7;0.8;;;;;;;25.99;19.03516;946.9336;;;;
2019/04/24 14:24:29;;;;;;;3.9;0.6;;;;;;;25.94;20.03418;946.9872;;;;
2019/04/24 14:26:55;;;;;;;3.6;0.9;;;;;;;25.82;20.85156;947.0294;;;;
2019/04/24 14:29:20;;;;;;;1.1;0.5;;;;;;;25.76;21.15723;946.9821;;;;
2019/04/24 14:31:45;;;;;;;2.6;0.5;;;;;;;25.89;20.62793;947.0042;;;;
2019/04/24 14:34:28;;;;;;;4.5;0.8;;;;;;;25.85;21.66309;947.0201;;;;
2019/04/24 14:36:53;;;;;;;7;0.7;;;;;;;25.76;20.50293;947.0034;;;;
2019/04/24 14:39:18;;;;;;;4.1;0.8;;;;;;;25.62;21.53223;947.0628;;;;
2019/04/24 14:41:52;;;;;;;4.4;0.7;;;;;;;25.56;21.82715;946.997;;;;
2019/04/24 14:44:42;;;;;;;4.3;0.8;;;;;;;25.43;23.30859;946.9578;;;;
2019/04/24 14:46:54;;;;;;;4.5;0.8;;;;;;;25.41;22.2002;947.0016;;;;
2019/04/24 14:49:07;;;;;;;4.2;0.6;;;;;;;25.41;21.61719;946.983;;;;
2019/04/24 14:51:32;;;;;;;4;0.6;;;;;;;25.35;23.22168;947.0066;;;;
2019/04/24 14:53:58;;;;;;;3.3;0.6;;;;;;;25.41;23.01074;946.9924;;;;
2019/04/24 14:56:23;;;;;;;3.6;0.6;;;;;;;25.31;24.59961;946.9424;;;;
2019/04/24 14:58:52;;;;;;;5.7;0.7;;;;;;;25.22;23.41699;946.9258;;;;
2019/04/24 15:01:17;;;;;;;5.3;0.8;;;;;;;25.11;23.73242;946.886;;;;
2019/04/24 15:03:42;;;;;;;2.1;0.7;;;;;;;25.07;24.55078;946.8845;;;;
2019/04/24 15:06:07;;;;;;;2;0.6;;;;;;;25.05;23.89551;946.883;;;;
2019/04/24 15:08:32;;;;;;;3.8;0.7;;;;;;;24.82;24.87012;946.8892;;;;
2019/04/24 15:11:08;;;;;;;4.6;0.6;;;;;;;24.8;24.86914;946.8625;;;;
2019/04/24 15:13:37;;;;;;;4.1;0.6;;;;;;;24.66;26.34668;946.9039;;;;
2019/04/24 15:16:17;;;;;;;3.3;0.9;;;;;;;24.6;26.18945;946.8367;;;;